Crookhaven, Ireland
Current Conditions -  °F | °C
As of 7:30 AM on Wednesday 28 Jan 2015 (Local Time) from EICK Reporting Station
Broken Clouds Broken Clouds  
Wind Chill: 38°   Ceiling: 2100
Heat Index: 46°   Visibility: 6mi
Dew Point: 37°   Wind: 28mph
Humidity: 71%   Direction: 270°W
Pressure: 29.71"   Gusts: 40mph
Location:  51.47°N, 9.73°W
Report Text: EICK 280630Z 27024G35KT 9999 FEW018CB BKN021 08/03 Q1006 NOSIG
Loading
Personal Weather Stations






























Interactive Weather Map New forecast layout! Learn more

10-Day Weather Forecast

Advertisements
Track Severe Weather on mobile